Terminal Aerodrome Forecast
Issued by NWS

Home | Current Version | Previous Version | Text Only | Print | Product List | Glossary Off
Versions: 1 2 3 4 5 6 7 8 9 10 11 12 13 14 15 16 17 18 19 20 21 22 23 24

000
FTUS43 KGRB 010500
TAFCWA
TAF
KCWA 010520Z 0106/0206 20008KT P6SM SCT030 BKN050
     FM010800 20006KT P6SM -SN OVC025
     FM011500 24007G14KT P6SM SCT030 BKN120
     FM012200 27009KT P6SM BKN030
     FM020300 29007KT P6SM SCT030
      AMD LTD TO CLD VIS AND WIND TIL 011200=

USA.gov is the U.S. government's official web portal to all federal, state and local government web resources and services.